sensor_id;sensor_type;location;lat;lon;timestamp;pressure;altitude;pressure_sealevel;temperature;humidity
49072;BME280;52656;52.610;10.236;2023-03-01T00:01:02;102736.66;;;-3.87;70.74
49072;BME280;52656;52.610;10.236;2023-03-01T00:03:27;102731.97;;;-3.78;69.47
49072;BME280;52656;52.610;10.236;2023-03-01T00:05:53;102739.66;;;-3.80;69.82
49072;BME280;52656;52.610;10.236;2023-03-01T00:08:18;102732.59;;;-3.82;69.98
49072;BME280;52656;52.610;10.236;2023-03-01T00:10:43;102730.78;;;-3.85;70.45
49072;BME280;52656;52.610;10.236;2023-03-01T00:13:09;102727.19;;;-3.87;71.05
49072;BME280;52656;52.610;10.236;2023-03-01T00:15:38;102722.13;;;-3.85;70.33
49072;BME280;52656;52.610;10.236;2023-03-01T00:18:04;102714.66;;;-3.79;70.55
49072;BME280;52656;52.610;10.236;2023-03-01T00:20:29;102715.31;;;-3.83;71.43
49072;BME280;52656;52.610;10.236;2023-03-01T00:22:54;102716.19;;;-3.83;71.25
49072;BME280;52656;52.610;10.236;2023-03-01T00:25:20;102730.84;;;-3.83;70.99
49072;BME280;52656;52.610;10.236;2023-03-01T00:27:46;102730.94;;;-3.82;69.26
49072;BME280;52656;52.610;10.236;2023-03-01T00:30:12;102723.81;;;-3.86;68.94
49072;BME280;52656;52.610;10.236;2023-03-01T00:32:38;102727.94;;;-3.89;70.60
49072;BME280;52656;52.610;10.236;2023-03-01T00:35:03;102718.41;;;-3.90;70.64
49072;BME280;52656;52.610;10.236;2023-03-01T00:37:29;102721.88;;;-3.90;70.32
49072;BME280;52656;52.610;10.236;2023-03-01T00:39:54;102726.97;;;-3.91;70.89
49072;BME280;52656;52.610;10.236;2023-03-01T00:42:19;102728.66;;;-3.92;71.18
49072;BME280;52656;52.610;10.236;2023-03-01T00:44:45;102732.25;;;-3.90;71.13
49072;BME280;52656;52.610;10.236;2023-03-01T00:47:10;102735.53;;;-3.92;70.39
49072;BME280;52656;52.610;10.236;2023-03-01T00:49:35;102739.78;;;-3.94;70.63
49072;BME280;52656;52.610;10.236;2023-03-01T00:52:00;102724.13;;;-3.96;70.25
49072;BME280;52656;52.610;10.236;2023-03-01T00:54:26;102727.47;;;-3.98;69.95
49072;BME280;52656;52.610;10.236;2023-03-01T00:56:51;102718.81;;;-3.99;69.78
49072;BME280;52656;52.610;10.236;2023-03-01T00:59:16;102717.84;;;-4.01;70.66
49072;BME280;52656;52.610;10.236;2023-03-01T01:01:42;102717.78;;;-4.02;70.78
49072;BME280;52656;52.610;10.236;2023-03-01T01:04:10;102716.72;;;-4.06;70.83
49072;BME280;52656;52.610;10.236;2023-03-01T01:06:38;102713.25;;;-4.07;70.35
49072;BME280;52656;52.610;10.236;2023-03-01T01:09:06;102718.25;;;-4.10;70.35
49072;BME280;52656;52.610;10.236;2023-03-01T01:11:33;102718.41;;;-4.07;70.14
49072;BME280;52656;52.610;10.236;2023-03-01T01:13:59;102710.50;;;-4.10;70.74
49072;BME280;52656;52.610;10.236;2023-03-01T01:16:26;102703.47;;;-4.12;70.38
49072;BME280;52656;52.610;10.236;2023-03-01T01:18:52;102707.53;;;-4.17;70.17
49072;BME280;52656;52.610;10.236;2023-03-01T01:21:20;102705.06;;;-4.14;70.25
49072;BME280;52656;52.610;10.236;2023-03-01T01:23:46;102710.13;;;-4.17;71.18
49072;BME280;52656;52.610;10.236;2023-03-01T01:26:26;102702.13;;;-4.22;71.24
49072;BME280;52656;52.610;10.236;2023-03-01T01:28:53;102701.13;;;-4.24;71.08
49072;BME280;52656;52.610;10.236;2023-03-01T01:31:19;102704.53;;;-4.25;70.00
49072;BME280;52656;52.610;10.236;2023-03-01T01:33:45;102706.06;;;-4.28;70.15
49072;BME280;52656;52.610;10.236;2023-03-01T01:36:11;102697.34;;;-4.31;70.03
49072;BME280;52656;52.610;10.236;2023-03-01T01:38:37;102696.34;;;-4.33;70.65
49072;BME280;52656;52.610;10.236;2023-03-01T01:41:03;102699.69;;;-4.35;70.99
49072;BME280;52656;52.610;10.236;2023-03-01T01:43:38;102695.34;;;-4.36;70.61
49072;BME280;52656;52.610;10.236;2023-03-01T01:46:21;102700.41;;;-4.38;70.78
49072;BME280;52656;52.610;10.236;2023-03-01T01:49:03;102693.38;;;-4.40;70.76
49072;BME280;52656;52.610;10.236;2023-03-01T01:51:39;102685.69;;;-4.39;71.21
49072;BME280;52656;52.610;10.236;2023-03-01T01:54:18;102692.41;;;-4.42;71.21
49072;BME280;52656;52.610;10.236;2023-03-01T01:56:51;102694.91;;;-4.44;71.46
49072;BME280;52656;52.610;10.236;2023-03-01T01:59:18;102687.88;;;-4.46;71.44
49072;BME280;52656;52.610;10.236;2023-03-01T02:01:43;102691.22;;;-4.49;70.55
49072;BME280;52656;52.610;10.236;2023-03-01T02:04:09;102688.50;;;-4.50;70.68
49072;BME280;52656;52.610;10.236;2023-03-01T02:06:39;102692.66;;;-4.54;70.99
49072;BME280;52656;52.610;10.236;2023-03-01T02:09:12;102688.28;;;-4.55;69.23
49072;BME280;52656;52.610;10.236;2023-03-01T02:11:38;102690.84;;;-4.55;70.60
49072;BME280;52656;52.610;10.236;2023-03-01T02:14:04;102679.56;;;-4.57;70.80
49072;BME280;52656;52.610;10.236;2023-03-01T02:16:29;102672.50;;;-4.60;71.00
49072;BME280;52656;52.610;10.236;2023-03-01T02:18:56;102676.97;;;-4.57;70.06
49072;BME280;52656;52.610;10.236;2023-03-01T02:23:47;102673.25;;;-4.62;70.67
49072;BME280;52656;52.610;10.236;2023-03-01T02:26:33;102671.31;;;-4.66;71.07
49072;BME280;52656;52.610;10.236;2023-03-01T02:29:02;102666.22;;;-4.65;69.98
49072;BME280;52656;52.610;10.236;2023-03-01T02:31:27;102662.75;;;-4.65;68.93
49072;BME280;52656;52.610;10.236;2023-03-01T02:34:23;102661.69;;;-4.69;70.68
49072;BME280;52656;52.610;10.236;2023-03-01T02:36:57;102666.72;;;-4.72;70.39
49072;BME280;52656;52.610;10.236;2023-03-01T02:39:37;102656.19;;;-4.75;70.88
49072;BME280;52656;52.610;10.236;2023-03-01T02:42:10;102664.84;;;-4.74;70.49
49072;BME280;52656;52.610;10.236;2023-03-01T02:44:36;102657.81;;;-4.77;70.31
49072;BME280;52656;52.610;10.236;2023-03-01T02:47:02;102641.31;;;-4.79;71.22
49072;BME280;52656;52.610;10.236;2023-03-01T02:49:30;102647.38;;;-4.78;70.95
49072;BME280;52656;52.610;10.236;2023-03-01T02:55:00;102632.50;;;-4.83;71.12
49072;BME280;52656;52.610;10.236;2023-03-01T02:57:28;102627.28;;;-4.84;71.94
49072;BME280;52656;52.610;10.236;2023-03-01T02:59:56;102615.94;;;-4.86;71.82
49072;BME280;52656;52.610;10.236;2023-03-01T03:02:25;102616.63;;;-4.90;72.30
49072;BME280;52656;52.610;10.236;2023-03-01T03:07:34;102610.72;;;-4.88;69.86
49072;BME280;52656;52.610;10.236;2023-03-01T03:10:01;102604.59;;;-4.90;70.67
49072;BME280;52656;52.610;10.236;2023-03-01T03:12:26;102608.63;;;-4.95;71.18
49072;BME280;52656;52.610;10.236;2023-03-01T03:14:52;102613.53;;;-4.99;71.33
49072;BME280;52656;52.610;10.236;2023-03-01T03:17:17;102612.56;;;-5.01;70.78
49072;BME280;52656;52.610;10.236;2023-03-01T03:19:42;102614.91;;;-5.06;71.94
49072;BME280;52656;52.610;10.236;2023-03-01T03:22:11;102619.25;;;-5.05;71.05
49072;BME280;52656;52.610;10.236;2023-03-01T03:24:36;102617.22;;;-5.11;72.05
49072;BME280;52656;52.610;10.236;2023-03-01T03:27:04;102624.09;;;-5.11;72.08
49072;BME280;52656;52.610;10.236;2023-03-01T03:29:30;102620.56;;;-5.13;71.91
49072;BME280;52656;52.610;10.236;2023-03-01T03:31:55;102616.09;;;-5.16;72.39
49072;BME280;52656;52.610;10.236;2023-03-01T03:34:20;102610.03;;;-5.16;71.43
49072;BME280;52656;52.610;10.236;2023-03-01T03:36:46;102620.19;;;-5.19;71.12
49072;BME280;52656;52.610;10.236;2023-03-01T03:39:11;102615.78;;;-5.22;71.70
49072;BME280;52656;52.610;10.236;2023-03-01T03:41:36;102616.66;;;-5.21;70.36
49072;BME280;52656;52.610;10.236;2023-03-01T03:44:02;102607.22;;;-5.21;71.10
49072;BME280;52656;52.610;10.236;2023-03-01T03:46:27;102607.03;;;-5.24;71.18
49072;BME280;52656;52.610;10.236;2023-03-01T03:48:53;102607.84;;;-5.25;70.64
49072;BME280;52656;52.610;10.236;2023-03-01T03:51:18;102612.94;;;-5.26;71.45
49072;BME280;52656;52.610;10.236;2023-03-01T03:53:44;102607.59;;;-5.29;71.39
49072;BME280;52656;52.610;10.236;2023-03-01T03:56:10;102606.63;;;-5.32;72.01
49072;BME280;52656;52.610;10.236;2023-03-01T03:58:36;102618.31;;;-5.38;73.05
49072;BME280;52656;52.610;10.236;2023-03-01T04:01:02;102610.75;;;-5.35;71.91
49072;BME280;52656;52.610;10.236;2023-03-01T04:03:28;102617.50;;;-5.37;72.19
49072;BME280;52656;52.610;10.236;2023-03-01T04:05:54;102613.94;;;-5.39;72.25
49072;BME280;52656;52.610;10.236;2023-03-01T04:08:22;102628.63;;;-5.38;72.00
49072;BME280;52656;52.610;10.236;2023-03-01T04:10:49;102626.69;;;-5.42;73.29
49072;BME280;52656;52.610;10.236;2023-03-01T04:13:17;102627.50;;;-5.43;72.35
49072;BME280;52656;52.610;10.236;2023-03-01T04:15:45;102628.31;;;-5.44;72.36
49072;BME280;52656;52.610;10.236;2023-03-01T04:18:15;102622.97;;;-5.47;72.03
49072;BME280;52656;52.610;10.236;2023-03-01T04:20:41;102628.06;;;-5.49;71.47
49072;BME280;52656;52.610;10.236;2023-03-01T04:23:08;102622.13;;;-5.63;72.54
49072;BME280;52656;52.610;10.236;2023-03-01T04:28:40;102625.72;;;-5.59;72.02
49072;BME280;52656;52.610;10.236;2023-03-01T04:31:17;102630.81;;;-5.61;71.19
49072;BME280;52656;52.610;10.236;2023-03-01T04:33:45;102631.63;;;-5.62;72.16
49072;BME280;52656;52.610;10.236;2023-03-01T04:36:13;102627.34;;;-5.61;71.68
49072;BME280;52656;52.610;10.236;2023-03-01T04:38:39;102625.59;;;-5.62;71.93
49072;BME280;52656;52.610;10.236;2023-03-01T04:41:07;102625.31;;;-5.67;71.76
49072;BME280;52656;52.610;10.236;2023-03-01T04:43:33;102627.16;;;-5.64;71.68
49072;BME280;52656;52.610;10.236;2023-03-01T04:46:03;102627.09;;;-5.66;71.09
49072;BME280;52656;52.610;10.236;2023-03-01T04:48:30;102625.41;;;-5.65;70.95
49072;BME280;52656;52.610;10.236;2023-03-01T04:50:55;102621.84;;;-5.67;71.79
49072;BME280;52656;52.610;10.236;2023-03-01T04:53:21;102620.88;;;-5.69;71.85
49072;BME280;52656;52.610;10.236;2023-03-01T04:55:46;102616.59;;;-5.69;71.68
49072;BME280;52656;52.610;10.236;2023-03-01T04:58:11;102613.13;;;-5.69;71.89
49072;BME280;52656;52.610;10.236;2023-03-01T05:00:37;102616.69;;;-5.67;71.64
49072;BME280;52656;52.610;10.236;2023-03-01T05:03:02;102619.97;;;-5.70;71.75
49072;BME280;52656;52.610;10.236;2023-03-01T05:05:33;102605.31;;;-5.71;71.89
49072;BME280;52656;52.610;10.236;2023-03-01T05:08:01;102613.03;;;-5.71;72.05
49072;BME280;52656;52.610;10.236;2023-03-01T05:10:29;102605.22;;;-5.72;71.92
49072;BME280;52656;52.610;10.236;2023-03-01T05:12:55;102597.38;;;-5.74;71.77
49072;BME280;52656;52.610;10.236;2023-03-01T05:15:22;102599.00;;;-5.76;72.32
49072;BME280;52656;52.610;10.236;2023-03-01T05:17:51;102604.97;;;-5.77;73.03
49072;BME280;52656;52.610;10.236;2023-03-01T05:20:16;102602.91;;;-5.83;73.67
49072;BME280;52656;52.610;10.236;2023-03-01T05:22:41;102602.19;;;-5.80;71.37
49072;BME280;52656;52.610;10.236;2023-03-01T05:25:07;102615.00;;;-5.82;71.31
49072;BME280;52656;52.610;10.236;2023-03-01T05:27:33;102602.91;;;-5.83;71.75
49072;BME280;52656;52.610;10.236;2023-03-01T05:29:58;102604.34;;;-5.88;71.54
49072;BME280;52656;52.610;10.236;2023-03-01T05:32:23;102605.97;;;-5.90;71.45
49072;BME280;52656;52.610;10.236;2023-03-01T05:34:49;102607.72;;;-5.89;71.14
49072;BME280;52656;52.610;10.236;2023-03-01T05:37:14;102602.31;;;-5.93;71.54
49072;BME280;52656;52.610;10.236;2023-03-01T05:39:40;102595.25;;;-5.96;71.48
49072;BME280;52656;52.610;10.236;2023-03-01T05:42:10;102589.13;;;-5.98;71.73
49072;BME280;52656;52.610;10.236;2023-03-01T05:44:35;102590.09;;;-5.96;71.98
49072;BME280;52656;52.610;10.236;2023-03-01T05:47:01;102603.81;;;-5.97;72.24
49072;BME280;52656;52.610;10.236;2023-03-01T05:49:26;102598.72;;;-5.95;72.57
49072;BME280;52656;52.610;10.236;2023-03-01T05:51:52;102596.88;;;-5.98;71.43
49072;BME280;52656;52.610;10.236;2023-03-01T05:54:19;102602.66;;;-6.02;71.56
49072;BME280;52656;52.610;10.236;2023-03-01T05:56:45;102601.97;;;-5.99;71.55
49072;BME280;52656;52.610;10.236;2023-03-01T05:59:11;102608.78;;;-6.00;71.39
49072;BME280;52656;52.610;10.236;2023-03-01T06:01:36;102616.63;;;-5.98;70.80
49072;BME280;52656;52.610;10.236;2023-03-01T06:04:03;102608.72;;;-6.01;70.84
49072;BME280;52656;52.610;10.236;2023-03-01T06:06:28;102613.06;;;-6.00;71.97
49072;BME280;52656;52.610;10.236;2023-03-01T06:08:54;102601.84;;;-6.01;71.48
49072;BME280;52656;52.610;10.236;2023-03-01T06:11:20;102603.72;;;-5.98;72.01
49072;BME280;52656;52.610;10.236;2023-03-01T06:13:46;102602.03;;;-5.98;71.25
49072;BME280;52656;52.610;10.236;2023-03-01T06:16:12;102609.97;;;-5.95;71.67
49072;BME280;52656;52.610;10.236;2023-03-01T06:18:38;102609.41;;;-5.89;70.85
49072;BME280;52656;52.610;10.236;2023-03-01T06:21:05;102607.72;;;-5.89;72.20
49072;BME280;52656;52.610;10.236;2023-03-01T06:23:31;102604.66;;;-5.82;71.43
49072;BME280;52656;52.610;10.236;2023-03-01T06:25:56;102610.03;;;-5.78;71.80
49072;BME280;52656;52.610;10.236;2023-03-01T06:28:21;102606.81;;;-5.74;71.28
49072;BME280;52656;52.610;10.236;2023-03-01T06:30:47;102607.00;;;-5.71;70.55
49072;BME280;52656;52.610;10.236;2023-03-01T06:33:13;102607.41;;;-5.64;70.57
49072;BME280;52656;52.610;10.236;2023-03-01T06:35:38;102612.03;;;-5.58;70.39
49072;BME280;52656;52.610;10.236;2023-03-01T06:38:05;102611.56;;;-5.51;71.08
49072;BME280;52656;52.610;10.236;2023-03-01T06:40:31;102606.75;;;-5.45;71.50
49072;BME280;52656;52.610;10.236;2023-03-01T06:42:57;102609.66;;;-5.39;70.94
49072;BME280;52656;52.610;10.236;2023-03-01T06:45:23;102607.34;;;-5.34;71.15
49072;BME280;52656;52.610;10.236;2023-03-01T06:47:49;102602.50;;;-5.28;70.75
49072;BME280;52656;52.610;10.236;2023-03-01T06:50:16;102608.66;;;-5.26;71.25
49072;BME280;52656;52.610;10.236;2023-03-01T06:52:42;102603.19;;;-5.16;70.86
49072;BME280;52656;52.610;10.236;2023-03-01T06:55:09;102602.78;;;-5.07;71.03
49072;BME280;52656;52.610;10.236;2023-03-01T06:57:35;102602.47;;;-4.97;70.98
49072;BME280;52656;52.610;10.236;2023-03-01T07:00:01;102600.44;;;-4.86;70.29
49072;BME280;52656;52.610;10.236;2023-03-01T07:02:26;102595.69;;;-4.78;71.58
49072;BME280;52656;52.610;10.236;2023-03-01T07:04:52;102593.56;;;-4.69;71.49
49072;BME280;52656;52.610;10.236;2023-03-01T07:07:18;102585.47;;;-4.59;71.57
49072;BME280;52656;52.610;10.236;2023-03-01T07:09:44;102592.75;;;-4.52;73.84
49072;BME280;52656;52.610;10.236;2023-03-01T07:12:10;102592.34;;;-4.43;74.00
49072;BME280;52656;52.610;10.236;2023-03-01T07:14:35;102589.59;;;-4.12;72.60
49072;BME280;52656;52.610;10.236;2023-03-01T07:17:01;102575.91;;;-1.35;65.56
49072;BME280;52656;52.610;10.236;2023-03-01T07:19:26;102557.94;;;0.48;57.76
49072;BME280;52656;52.610;10.236;2023-03-01T07:21:51;102556.31;;;1.42;53.12
49072;BME280;52656;52.610;10.236;2023-03-01T07:24:17;102551.56;;;3.13;50.12
49072;BME280;52656;52.610;10.236;2023-03-01T07:26:42;102546.59;;;4.23;48.05
49072;BME280;52656;52.610;10.236;2023-03-01T07:29:09;102540.88;;;5.19;46.55
49072;BME280;52656;52.610;10.236;2023-03-01T07:31:35;102539.81;;;5.91;44.81
49072;BME280;52656;52.610;10.236;2023-03-01T07:34:00;102546.50;;;6.63;44.63
49072;BME280;52656;52.610;10.236;2023-03-01T07:36:26;102547.47;;;6.90;44.13
49072;BME280;52656;52.610;10.236;2023-03-01T07:38:51;102542.31;;;7.14;43.41
49072;BME280;52656;52.610;10.236;2023-03-01T07:41:17;102547.66;;;7.37;43.23
49072;BME280;52656;52.610;10.236;2023-03-01T07:43:42;102539.81;;;7.82;42.90
49072;BME280;52656;52.610;10.236;2023-03-01T07:46:08;102536.28;;;8.13;42.19
49072;BME280;52656;52.610;10.236;2023-03-01T07:48:33;102534.53;;;7.88;40.22
49072;BME280;52656;52.610;10.236;2023-03-01T07:51:00;102545.66;;;6.74;41.25
49072;BME280;52656;52.610;10.236;2023-03-01T07:53:26;102538.94;;;7.86;42.80
49072;BME280;52656;52.610;10.236;2023-03-01T07:56:11;102534.41;;;8.71;41.47
49072;BME280;52656;52.610;10.236;2023-03-01T07:58:40;102537.75;;;9.15;41.06
49072;BME280;52656;52.610;10.236;2023-03-01T08:01:08;102531.34;;;9.53;40.28
49072;BME280;52656;52.610;10.236;2023-03-01T08:03:34;102527.78;;;9.59;39.47
49072;BME280;52656;52.610;10.236;2023-03-01T08:06:04;102529.50;;;9.67;40.11
49072;BME280;52656;52.610;10.236;2023-03-01T08:08:30;102525.66;;;10.08;39.34
49072;BME280;52656;52.610;10.236;2023-03-01T08:10:56;102524.09;;;9.80;36.07
49072;BME280;52656;52.610;10.236;2023-03-01T08:13:22;102523.66;;;10.30;39.44
49072;BME280;52656;52.610;10.236;2023-03-01T08:15:48;102516.19;;;10.67;39.28
49072;BME280;52656;52.610;10.236;2023-03-01T08:18:14;102519.44;;;10.89;38.02
49072;BME280;52656;52.610;10.236;2023-03-01T08:20:40;102521.75;;;10.46;36.72
49072;BME280;52656;52.610;10.236;2023-03-01T08:23:05;102508.91;;;10.85;37.91
49072;BME280;52656;52.610;10.236;2023-03-01T08:25:30;102500.06;;;10.84;37.36
49072;BME280;52656;52.610;10.236;2023-03-01T08:27:56;102512.75;;;9.64;38.05
49072;BME280;52656;52.610;10.236;2023-03-01T08:30:21;102509.53;;;9.22;38.77
49072;BME280;52656;52.610;10.236;2023-03-01T08:32:48;102511.16;;;9.45;39.15
49072;BME280;52656;52.610;10.236;2023-03-01T08:35:14;102508.44;;;9.51;38.50
49072;BME280;52656;52.610;10.236;2023-03-01T08:37:39;102509.31;;;9.53;38.31
49072;BME280;52656;52.610;10.236;2023-03-01T08:40:05;102507.25;;;9.93;38.48
49072;BME280;52656;52.610;10.236;2023-03-01T08:42:35;102518.25;;;10.42;38.84
49072;BME280;52656;52.610;10.236;2023-03-01T08:45:00;102509.81;;;10.81;38.57
49072;BME280;52656;52.610;10.236;2023-03-01T08:47:25;102502.22;;;11.21;38.06
49072;BME280;52656;52.610;10.236;2023-03-01T08:49:51;102505.53;;;11.38;36.98
49072;BME280;52656;52.610;10.236;2023-03-01T08:52:16;102493.69;;;11.01;35.74
49072;BME280;52656;52.610;10.236;2023-03-01T08:54:42;102500.31;;;11.34;36.71
49072;BME280;52656;52.610;10.236;2023-03-01T08:57:07;102497.03;;;11.13;37.38
49072;BME280;52656;52.610;10.236;2023-03-01T08:59:34;102502.09;;;11.33;36.71
49072;BME280;52656;52.610;10.236;2023-03-01T09:02:03;102510.50;;;11.61;35.51
49072;BME280;52656;52.610;10.236;2023-03-01T09:04:29;102510.63;;;10.07;34.74
49072;BME280;52656;52.610;10.236;2023-03-01T09:06:54;102510.16;;;10.53;36.73
49072;BME280;52656;52.610;10.236;2023-03-01T09:09:20;102502.31;;;11.15;35.59
49072;BME280;52656;52.610;10.236;2023-03-01T09:11:46;102497.19;;;11.01;34.86
49072;BME280;52656;52.610;10.236;2023-03-01T09:14:13;102499.78;;;11.06;35.13
49072;BME280;52656;52.610;10.236;2023-03-01T09:16:39;102509.06;;;11.39;34.95
49072;BME280;52656;52.610;10.236;2023-03-01T09:19:05;102508.44;;;11.23;34.39
49072;BME280;52656;52.610;10.236;2023-03-01T09:21:31;102499.25;;;11.45;34.50
49072;BME280;52656;52.610;10.236;2023-03-01T09:23:57;102495.53;;;11.56;33.89
49072;BME280;52656;52.610;10.236;2023-03-01T09:26:23;102509.69;;;10.17;35.58
49072;BME280;52656;52.610;10.236;2023-03-01T09:28:50;102508.91;;;10.03;36.68
49072;BME280;52656;52.610;10.236;2023-03-01T09:31:17;102508.97;;;8.39;37.23
49072;BME280;52656;52.610;10.236;2023-03-01T09:33:48;102503.63;;;8.65;37.58
49072;BME280;52656;52.610;10.236;2023-03-01T09:36:19;102499.00;;;9.11;36.90
49072;BME280;52656;52.610;10.236;2023-03-01T09:38:46;102506.34;;;8.40;37.78
49072;BME280;52656;52.610;10.236;2023-03-01T09:43:56;102496.22;;;9.36;34.98
49072;BME280;52656;52.610;10.236;2023-03-01T09:46:25;102497.00;;;9.50;34.94
49072;BME280;52656;52.610;10.236;2023-03-01T09:48:55;102501.72;;;8.93;35.82
49072;BME280;52656;52.610;10.236;2023-03-01T09:51:35;102493.88;;;8.72;36.13
49072;BME280;52656;52.610;10.236;2023-03-01T09:54:02;102502.44;;;9.24;35.15
49072;BME280;52656;52.610;10.236;2023-03-01T09:56:33;102497.69;;;9.71;35.55
49072;BME280;52656;52.610;10.236;2023-03-01T09:59:04;102492.13;;;10.06;34.56
49072;BME280;52656;52.610;10.236;2023-03-01T10:04:45;102491.19;;;8.91;36.09
49072;BME280;52656;52.610;10.236;2023-03-01T10:07:21;102487.38;;;9.38;35.34
49072;BME280;52656;52.610;10.236;2023-03-01T10:09:49;102487.03;;;9.80;34.39
49072;BME280;52656;52.610;10.236;2023-03-01T10:12:16;102488.63;;;8.65;36.04
49072;BME280;52656;52.610;10.236;2023-03-01T10:14:55;102499.06;;;8.99;35.74
49072;BME280;52656;52.610;10.236;2023-03-01T10:20:23;102488.25;;;9.37;35.52
49072;BME280;52656;52.610;10.236;2023-03-01T10:22:50;102491.13;;;8.98;35.87
49072;BME280;52656;52.610;10.236;2023-03-01T10:30:46;102484.31;;;8.48;37.07
49072;BME280;52656;52.610;10.236;2023-03-01T10:33:27;102484.00;;;9.15;36.14
49072;BME280;52656;52.610;10.236;2023-03-01T10:35:54;102476.56;;;9.66;35.57
49072;BME280;52656;52.610;10.236;2023-03-01T10:38:20;102482.41;;;8.82;37.21
49072;BME280;52656;52.610;10.236;2023-03-01T10:43:19;102473.31;;;9.29;36.91
49072;BME280;52656;52.610;10.236;2023-03-01T10:45:45;102472.19;;;9.62;35.55
49072;BME280;52656;52.610;10.236;2023-03-01T10:48:23;102468.44;;;8.55;37.31
49072;BME280;52656;52.610;10.236;2023-03-01T10:51:05;102472.91;;;8.32;38.25
49072;BME280;52656;52.610;10.236;2023-03-01T10:53:43;102460.78;;;9.55;36.79
49072;BME280;52656;52.610;10.236;2023-03-01T10:56:14;102465.22;;;9.55;35.55
49072;BME280;52656;52.610;10.236;2023-03-01T10:58:59;102458.88;;;9.74;35.70
49072;BME280;52656;52.610;10.236;2023-03-01T11:01:30;102472.09;;;7.87;37.39
49072;BME280;52656;52.610;10.236;2023-03-01T11:06:36;102463.00;;;8.84;36.89
49072;BME280;52656;52.610;10.236;2023-03-01T11:11:44;102458.56;;;8.96;37.05
49072;BME280;52656;52.610;10.236;2023-03-01T11:14:17;102457.91;;;8.40;37.41
49072;BME280;52656;52.610;10.236;2023-03-01T11:16:48;102462.44;;;7.60;39.51
49072;BME280;52656;52.610;10.236;2023-03-01T11:19:22;102452.53;;;8.68;37.44
49072;BME280;52656;52.610;10.236;2023-03-01T11:24:16;102451.75;;;8.50;37.34
49072;BME280;52656;52.610;10.236;2023-03-01T11:26:51;102449.81;;;8.84;36.43
49072;BME280;52656;52.610;10.236;2023-03-01T11:31:52;102450.94;;;8.31;37.74
49072;BME280;52656;52.610;10.236;2023-03-01T11:34:28;102443.63;;;8.88;35.77
49072;BME280;52656;52.610;10.236;2023-03-01T11:36:59;102455.28;;;8.35;36.18
49072;BME280;52656;52.610;10.236;2023-03-01T11:42:19;102447.44;;;7.80;37.51
49072;BME280;52656;52.610;10.236;2023-03-01T11:44:48;102454.47;;;7.40;38.13
49072;BME280;52656;52.610;10.236;2023-03-01T11:52:57;102443.84;;;6.85;37.01
49072;BME280;52656;52.610;10.236;2023-03-01T11:55:45;102434.22;;;6.95;35.55
49072;BME280;52656;52.610;10.236;2023-03-01T11:58:41;102423.72;;;7.19;34.95
49072;BME280;52656;52.610;10.236;2023-03-01T12:01:29;102421.09;;;7.16;35.08
49072;BME280;52656;52.610;10.236;2023-03-01T12:04:26;102414.09;;;7.32;35.03
49072;BME280;52656;52.610;10.236;2023-03-01T12:10:07;102419.28;;;6.87;37.46
49072;BME280;52656;52.610;10.236;2023-03-01T12:12:57;102406.13;;;7.01;37.24
49072;BME280;52656;52.610;10.236;2023-03-01T12:19:05;102412.31;;;7.05;32.63
49072;BME280;52656;52.610;10.236;2023-03-01T12:22:04;102405.16;;;6.61;34.25
49072;BME280;52656;52.610;10.236;2023-03-01T12:25:00;102400.00;;;6.96;34.11
49072;BME280;52656;52.610;10.236;2023-03-01T12:33:22;102389.50;;;7.27;35.57
49072;BME280;52656;52.610;10.236;2023-03-01T12:38:42;102372.75;;;7.35;34.86
49072;BME280;52656;52.610;10.236;2023-03-01T12:49:32;102359.59;;;7.08;34.81
49072;BME280;52656;52.610;10.236;2023-03-01T12:54:44;102351.69;;;7.08;35.77
49072;BME280;52656;52.610;10.236;2023-03-01T13:02:37;102340.28;;;7.27;34.97
49072;BME280;52656;52.610;10.236;2023-03-01T13:08:05;102337.66;;;7.04;35.33
49072;BME280;52656;52.610;10.236;2023-03-01T13:10:41;102332.38;;;7.18;34.17
49072;BME280;52656;52.610;10.236;2023-03-01T13:13:23;102327.94;;;7.40;34.72
49072;BME280;52656;52.610;10.236;2023-03-01T13:15:50;102325.31;;;7.26;35.04
49072;BME280;52656;52.610;10.236;2023-03-01T13:20:55;102327.09;;;7.15;35.86
49072;BME280;52656;52.610;10.236;2023-03-01T13:26:00;102320.94;;;6.75;36.20
49072;BME280;52656;52.610;10.236;2023-03-01T13:31:08;102318.34;;;7.08;35.92
49072;BME280;52656;52.610;10.236;2023-03-01T13:37:08;102316.53;;;7.29;35.35
49072;BME280;52656;52.610;10.236;2023-03-01T13:39:27;102308.63;;;7.38;35.94
49072;BME280;52656;52.610;10.236;2023-03-01T13:41:54;102312.16;;;7.20;35.17
49072;BME280;52656;52.610;10.236;2023-03-01T13:46:50;102297.22;;;6.81;35.91
49072;BME280;52656;52.610;10.236;2023-03-01T13:49:19;102299.84;;;6.81;35.82
49072;BME280;52656;52.610;10.236;2023-03-01T13:51:48;102296.34;;;6.80;36.00
49072;BME280;52656;52.610;10.236;2023-03-01T13:54:16;102293.72;;;6.91;35.53
49072;BME280;52656;52.610;10.236;2023-03-01T13:56:45;102292.84;;;7.06;35.93
49072;BME280;52656;52.610;10.236;2023-03-01T13:59:17;102295.47;;;7.17;35.59
49072;BME280;52656;52.610;10.236;2023-03-01T14:01:43;102292.84;;;7.15;35.09
49072;BME280;52656;52.610;10.236;2023-03-01T14:04:23;102291.94;;;7.28;35.00
49072;BME280;52656;52.610;10.236;2023-03-01T14:06:49;102296.34;;;7.22;34.65
49072;BME280;52656;52.610;10.236;2023-03-01T14:09:16;102284.94;;;7.27;34.32
49072;BME280;52656;52.610;10.236;2023-03-01T14:14:36;102281.41;;;7.36;34.35
49072;BME280;52656;52.610;10.236;2023-03-01T14:19:55;102278.78;;;7.24;34.11
49072;BME280;52656;52.610;10.236;2023-03-01T14:22:42;102273.50;;;7.19;33.18
49072;BME280;52656;52.610;10.236;2023-03-01T14:25:34;102274.41;;;7.04;33.04
49072;BME280;52656;52.610;10.236;2023-03-01T14:28:05;102274.38;;;7.27;32.70
49072;BME280;52656;52.610;10.236;2023-03-01T14:30:41;102280.50;;;7.37;33.64